Time;durP1;ratioP1;P1;durP2;ratioP2;P2;SDS_P1;SDS_P2;PMS_P1;PMS_P2;Temp;Humidity;BMP_temperature;BMP_pressure;BME280_temperature;BME280_humidity;BME280_pressure;Samples;Min_cycle;Max_cycle;Signal;HPM_P1;HPM_P2
2023/08/02 00:00:58;;;;;;;0.00;0.00;;;16.40;92.10;;;;;;5009515;28;20057;-72
2023/08/02 00:03:23;;;;;;;0.00;0.00;;;16.50;92.10;;;;;;5009127;28;20081;-72
2023/08/02 00:05:56;;;;;;;0.00;0.00;;;16.40;92.10;;;;;;4990985;28;20073;-72
2023/08/02 00:08:23;;;;;;;0.00;0.00;;;16.50;92.10;;;;;;5007851;28;20100;-72
2023/08/02 00:10:48;;;;;;;0.00;0.00;;;16.50;92.00;;;;;;5008360;28;20102;-72
2023/08/02 00:13:14;;;;;;;0.00;0.00;;;16.50;92.00;;;;;;5007659;28;20117;-72
2023/08/02 00:15:40;;;;;;;0.00;0.00;;;16.50;91.90;;;;;;5008426;28;21074;-72
2023/08/02 00:18:06;;;;;;;0.00;0.00;;;16.50;92.00;;;;;;5008267;28;20691;-72
2023/08/02 00:20:32;;;;;;;0.00;0.00;;;16.50;91.90;;;;;;5006290;28;20175;-72
2023/08/02 00:22:57;;;;;;;0.00;0.00;;;16.40;91.90;;;;;;5008234;28;20192;-72
2023/08/02 00:25:23;;;;;;;0.00;0.00;;;16.40;91.80;;;;;;5007606;28;20062;-72
2023/08/02 00:27:49;;;;;;;0.00;0.00;;;16.40;91.90;;;;;;5007635;28;20054;-72
2023/08/02 00:30:14;;;;;;;0.00;0.00;;;16.40;91.80;;;;;;5009119;28;20053;-72
2023/08/02 00:32:48;;;;;;;0.00;0.00;;;16.40;91.80;;;;;;5008302;28;20046;-72
2023/08/02 00:35:14;;;;;;;0.00;0.00;;;16.40;91.80;;;;;;5007340;28;20057;-72
2023/08/02 00:37:40;;;;;;;0.00;0.00;;;16.40;91.80;;;;;;5007364;28;20517;-72
2023/08/02 00:40:07;;;;;;;0.00;0.00;;;16.40;91.80;;;;;;5006439;28;20479;-72
2023/08/02 00:42:32;;;;;;;0.00;0.00;;;16.40;91.70;;;;;;5007646;28;20042;-72
2023/08/02 00:44:58;;;;;;;0.00;0.00;;;16.50;91.70;;;;;;5006597;28;20100;-72
2023/08/02 00:47:24;;;;;;;0.00;0.00;;;16.50;91.70;;;;;;5007935;28;20042;-72
2023/08/02 00:49:50;;;;;;;0.00;0.00;;;16.40;91.60;;;;;;5008639;28;20045;-72
2023/08/02 00:52:16;;;;;;;0.00;0.00;;;16.40;91.60;;;;;;5007134;28;20034;-72
2023/08/02 00:54:42;;;;;;;0.00;0.00;;;16.40;91.60;;;;;;5008048;28;20099;-72
2023/08/02 00:57:08;;;;;;;0.00;0.00;;;16.40;91.50;;;;;;5006835;28;20038;-72
2023/08/02 00:59:39;;;;;;;0.00;0.00;;;16.50;91.50;;;;;;5007102;28;20081;-72
2023/08/02 01:02:06;;;;;;;0.00;0.00;;;16.50;91.50;;;;;;5007177;28;20050;-72
2023/08/02 01:04:33;;;;;;;0.00;0.00;;;16.50;91.40;;;;;;5007925;28;20402;-72
2023/08/02 01:07:31;;;;;;;0.00;0.00;;;16.50;91.40;;;;;;5007536;28;21337;-72
2023/08/02 01:10:05;;;;;;;0.00;0.00;;;16.40;91.30;;;;;;4983531;28;20082;-72
2023/08/02 01:12:33;;;;;;;0.00;0.00;;;16.50;91.30;;;;;;5007585;28;20088;-72
2023/08/02 01:15:03;;;;;;;0.00;0.00;;;16.40;91.30;;;;;;5008020;28;20050;-72
2023/08/02 01:17:30;;;;;;;0.10;0.10;;;16.50;91.30;;;;;;5007507;28;20080;-72
2023/08/02 01:20:04;;;;;;;0.00;0.00;;;16.50;91.40;;;;;;5007604;28;20053;-72
2023/08/02 01:22:29;;;;;;;0.00;0.00;;;16.50;91.30;;;;;;5006864;28;20045;-72
2023/08/02 01:24:56;;;;;;;0.03;0.03;;;16.60;91.40;;;;;;5007510;28;20407;-72
2023/08/02 01:27:25;;;;;;;0.00;0.00;;;16.50;91.40;;;;;;5006407;28;20084;-72
2023/08/02 01:29:52;;;;;;;0.00;0.00;;;16.60;91.40;;;;;;5007470;28;20116;-72
2023/08/02 01:32:21;;;;;;;0.00;0.00;;;16.60;91.40;;;;;;5004938;28;20148;-72
2023/08/02 01:34:48;;;;;;;0.00;0.00;;;16.60;91.40;;;;;;5007438;28;20494;-72
2023/08/02 01:37:14;;;;;;;0.00;0.00;;;16.60;91.40;;;;;;5007576;28;20085;-72
2023/08/02 01:39:40;;;;;;;0.00;0.00;;;16.60;91.40;;;;;;5007534;28;20038;-72
2023/08/02 01:42:05;;;;;;;0.00;0.00;;;16.60;91.40;;;;;;5005983;28;20042;-71
2023/08/02 01:44:31;;;;;;;0.00;0.00;;;16.60;91.40;;;;;;5007905;28;20491;-72
2023/08/02 01:46:56;;;;;;;0.00;0.00;;;16.60;91.30;;;;;;5007824;28;20045;-72
2023/08/02 01:49:22;;;;;;;0.00;0.00;;;16.60;91.40;;;;;;5007339;28;20049;-72
2023/08/02 01:51:47;;;;;;;0.00;0.00;;;16.60;91.30;;;;;;5006616;28;20132;-72
2023/08/02 01:54:13;;;;;;;0.00;0.00;;;16.60;91.40;;;;;;5007967;28;20073;-72
2023/08/02 01:56:39;;;;;;;0.00;0.00;;;16.60;91.40;;;;;;5007350;28;20052;-72
2023/08/02 01:59:04;;;;;;;0.00;0.00;;;16.60;91.30;;;;;;5007201;28;20049;-72
2023/08/02 02:01:30;;;;;;;0.00;0.00;;;16.60;91.30;;;;;;5005966;28;20046;-72
2023/08/02 02:03:55;;;;;;;0.00;0.00;;;16.60;91.30;;;;;;5006818;28;20092;-72
2023/08/02 02:06:21;;;;;;;0.00;0.00;;;16.50;91.30;;;;;;5007741;28;20041;-72
2023/08/02 02:08:47;;;;;;;0.00;0.00;;;16.50;91.30;;;;;;5004940;28;20045;-72
2023/08/02 02:11:12;;;;;;;0.00;0.00;;;16.60;91.30;;;;;;5006897;28;20461;-72
2023/08/02 02:13:38;;;;;;;0.00;0.00;;;16.50;91.30;;;;;;5007143;28;20041;-72
2023/08/02 02:16:03;;;;;;;0.00;0.00;;;16.50;91.30;;;;;;5006916;28;20038;-71
2023/08/02 02:18:29;;;;;;;0.00;0.00;;;16.50;91.30;;;;;;5006714;28;20509;-72
2023/08/02 02:20:54;;;;;;;0.00;0.00;;;16.50;91.40;;;;;;5009452;28;20151;-72
2023/08/02 02:23:20;;;;;;;0.00;0.00;;;16.50;91.30;;;;;;5009997;28;20042;-72
2023/08/02 02:25:45;;;;;;;0.00;0.00;;;16.50;91.40;;;;;;5010375;28;20046;-72
2023/08/02 02:28:11;;;;;;;0.00;0.00;;;16.50;91.40;;;;;;5010710;28;20132;-72
2023/08/02 02:30:37;;;;;;;0.00;0.00;;;16.50;91.40;;;;;;4993028;28;20104;-71
2023/08/02 02:33:04;;;;;;;0.00;0.00;;;16.50;91.40;;;;;;5009838;28;20069;-72
2023/08/02 02:35:30;;;;;;;0.00;0.00;;;16.50;91.30;;;;;;5010732;28;20046;-72
2023/08/02 02:37:55;;;;;;;0.00;0.00;;;16.50;91.30;;;;;;5011041;28;20040;-72
2023/08/02 02:40:21;;;;;;;0.00;0.00;;;16.50;91.40;;;;;;5010548;28;20041;-72
2023/08/02 02:42:46;;;;;;;0.00;0.00;;;16.50;91.40;;;;;;5009880;28;20057;-72
2023/08/02 02:45:13;;;;;;;0.00;0.00;;;16.50;91.30;;;;;;5010739;28;20042;-72
2023/08/02 02:47:39;;;;;;;0.03;0.03;;;16.50;91.30;;;;;;5008493;28;20038;-72
2023/08/02 02:50:05;;;;;;;0.00;0.00;;;16.40;91.30;;;;;;5009696;28;20361;-72
2023/08/02 02:52:31;;;;;;;0.63;0.43;;;16.40;91.30;;;;;;4992502;28;20046;-72
2023/08/02 02:54:57;;;;;;;0.00;0.00;;;16.40;91.30;;;;;;5010174;28;20407;-72
2023/08/02 02:57:22;;;;;;;0.00;0.00;;;16.40;91.40;;;;;;5009551;28;20054;-72
2023/08/02 02:59:48;;;;;;;0.00;0.00;;;16.30;91.40;;;;;;5010318;28;20046;-72
2023/08/02 03:02:13;;;;;;;0.00;0.00;;;16.40;91.40;;;;;;5010393;28;20061;-72
2023/08/02 03:04:39;;;;;;;0.00;0.00;;;16.40;91.40;;;;;;5009724;28;20128;-72
2023/08/02 03:07:05;;;;;;;0.00;0.00;;;16.30;91.40;;;;;;5010336;28;20041;-72
2023/08/02 03:09:30;;;;;;;0.00;0.00;;;16.30;91.30;;;;;;5009105;28;20418;-72
2023/08/02 03:11:56;;;;;;;0.00;0.00;;;16.30;91.40;;;;;;5008650;28;20092;-72
2023/08/02 03:14:21;;;;;;;0.00;0.00;;;16.30;91.40;;;;;;5009192;28;20120;-72
2023/08/02 03:16:47;;;;;;;0.00;0.00;;;16.30;91.40;;;;;;5009787;28;20049;-72
2023/08/02 03:19:13;;;;;;;0.00;0.00;;;16.30;91.40;;;;;;5006682;28;20046;-72
2023/08/02 03:21:39;;;;;;;0.00;0.00;;;16.30;91.40;;;;;;5009566;28;20534;-72
2023/08/02 03:24:05;;;;;;;0.00;0.00;;;16.30;91.50;;;;;;5009134;28;20116;-72
2023/08/02 03:26:31;;;;;;;0.00;0.00;;;16.30;91.50;;;;;;5007744;28;20054;-71
2023/08/02 03:28:57;;;;;;;0.00;0.00;;;16.30;91.50;;;;;;5007759;28;20042;-72
2023/08/02 03:31:22;;;;;;;0.00;0.00;;;16.30;91.50;;;;;;5007478;28;20097;-72
2023/08/02 03:33:48;;;;;;;0.00;0.00;;;16.20;91.60;;;;;;5008691;28;20502;-72
2023/08/02 03:36:14;;;;;;;0.00;0.00;;;16.30;91.60;;;;;;5009154;28;20161;-72
2023/08/02 03:38:41;;;;;;;0.00;0.00;;;16.30;91.60;;;;;;5008958;28;20049;-72
2023/08/02 03:41:07;;;;;;;0.00;0.00;;;16.20;91.60;;;;;;5009669;28;20041;-72
2023/08/02 03:43:32;;;;;;;0.00;0.00;;;16.20;91.50;;;;;;5008779;28;20034;-72
2023/08/02 03:45:58;;;;;;;0.00;0.00;;;16.30;91.60;;;;;;5008708;28;20042;-72
2023/08/02 03:48:25;;;;;;;0.00;0.00;;;16.30;91.50;;;;;;5009692;28;20073;-72
2023/08/02 03:50:50;;;;;;;0.00;0.00;;;16.20;91.60;;;;;;5008952;28;20483;-72
2023/08/02 03:53:16;;;;;;;0.00;0.00;;;16.20;91.70;;;;;;5009047;28;20038;-71
2023/08/02 03:55:41;;;;;;;0.00;0.00;;;16.20;91.70;;;;;;5008641;28;20061;-72
2023/08/02 03:58:07;;;;;;;0.03;0.03;;;16.10;91.70;;;;;;5009575;28;20049;-71
2023/08/02 04:00:33;;;;;;;0.00;0.00;;;16.20;91.70;;;;;;5009041;28;20053;-71
2023/08/02 04:03:00;;;;;;;0.00;0.00;;;16.20;91.70;;;;;;5008773;28;20046;-72
2023/08/02 04:05:25;;;;;;;0.28;0.28;;;16.20;91.70;;;;;;5008682;28;20046;-72
2023/08/02 04:07:51;;;;;;;0.00;0.00;;;16.20;91.70;;;;;;5008458;28;20058;-71
2023/08/02 04:10:16;;;;;;;0.00;0.00;;;16.10;91.60;;;;;;5008135;28;20049;-71
2023/08/02 04:12:42;;;;;;;0.00;0.00;;;16.10;91.60;;;;;;5007700;28;20046;-72
2023/08/02 04:15:08;;;;;;;0.00;0.00;;;16.10;91.60;;;;;;5008008;28;20942;-72
2023/08/02 04:17:34;;;;;;;0.20;0.20;;;16.10;91.60;;;;;;5007826;28;20454;-71
2023/08/02 04:20:01;;;;;;;0.00;0.00;;;16.10;91.60;;;;;;5006246;28;20167;-72
2023/08/02 04:22:29;;;;;;;0.00;0.00;;;16.10;91.60;;;;;;5007335;28;20056;-71
2023/08/02 04:24:54;;;;;;;0.10;0.10;;;16.00;91.60;;;;;;5008639;28;20420;-71
2023/08/02 04:27:20;;;;;;;0.00;0.00;;;16.10;91.60;;;;;;5006723;28;20065;-71
2023/08/02 04:29:45;;;;;;;0.00;0.00;;;16.00;91.50;;;;;;5007169;28;20786;-71
2023/08/02 04:32:11;;;;;;;0.00;0.00;;;16.00;91.50;;;;;;5007145;28;20045;-72
2023/08/02 04:34:36;;;;;;;0.00;0.00;;;16.00;91.50;;;;;;5007669;28;20154;-72
2023/08/02 04:37:02;;;;;;;0.00;0.00;;;16.00;91.50;;;;;;5008877;28;20099;-72
2023/08/02 04:39:27;;;;;;;0.00;0.00;;;16.00;91.50;;;;;;5006979;28;20598;-72
2023/08/02 04:41:54;;;;;;;0.00;0.00;;;15.90;91.50;;;;;;5006272;28;20034;-71
2023/08/02 04:44:20;;;;;;;0.00;0.00;;;15.90;91.40;;;;;;5004282;28;20458;-71
2023/08/02 04:46:45;;;;;;;0.00;0.00;;;15.90;91.40;;;;;;5008102;28;20038;-71
2023/08/02 04:49:11;;;;;;;0.00;0.00;;;15.90;91.40;;;;;;5006503;28;20042;-72
2023/08/02 04:51:38;;;;;;;0.00;0.00;;;16.00;91.50;;;;;;4989394;28;20050;-71
2023/08/02 04:54:04;;;;;;;0.00;0.00;;;15.90;91.40;;;;;;5006335;28;20144;-72
2023/08/02 04:56:30;;;;;;;0.00;0.00;;;15.90;91.40;;;;;;5008113;28;20073;-71
2023/08/02 04:58:56;;;;;;;0.00;0.00;;;15.90;91.40;;;;;;5006333;28;20069;-72
2023/08/02 05:01:21;;;;;;;0.00;0.00;;;15.80;91.40;;;;;;5006450;28;20092;-71
2023/08/02 05:03:47;;;;;;;0.00;0.00;;;15.80;91.40;;;;;;5005961;28;20044;-72
2023/08/02 05:06:12;;;;;;;0.00;0.00;;;15.90;91.40;;;;;;5007023;28;20482;-71
2023/08/02 05:08:38;;;;;;;0.00;0.00;;;15.80;91.40;;;;;;5006094;28;20561;-71
2023/08/02 05:11:05;;;;;;;0.00;0.00;;;15.90;91.50;;;;;;5006287;28;20065;-71
2023/08/02 05:13:31;;;;;;;0.00;0.00;;;15.80;91.50;;;;;;5007213;28;20525;-72
2023/08/02 05:15:57;;;;;;;0.00;0.00;;;15.80;91.50;;;;;;5006719;28;20037;-71
2023/08/02 05:18:22;;;;;;;0.00;0.00;;;15.90;91.60;;;;;;5006300;28;20508;-71
2023/08/02 05:20:49;;;;;;;0.00;0.00;;;15.90;91.50;;;;;;5006538;28;20038;-71
2023/08/02 05:23:14;;;;;;;0.00;0.00;;;15.90;91.40;;;;;;4989662;28;20057;-71
2023/08/02 05:25:42;;;;;;;0.00;0.00;;;15.90;91.40;;;;;;5004817;28;20202;-70
2023/08/02 05:28:07;;;;;;;0.00;0.00;;;15.90;91.40;;;;;;5006449;28;20092;-72
2023/08/02 05:30:34;;;;;;;0.00;0.00;;;15.90;91.40;;;;;;5004543;28;20070;-72
2023/08/02 05:33:00;;;;;;;0.00;0.00;;;15.90;91.30;;;;;;5007158;28;20118;-72
2023/08/02 05:35:26;;;;;;;0.00;0.00;;;15.90;91.30;;;;;;4989627;28;20081;-72
2023/08/02 05:37:54;;;;;;;0.00;0.00;;;15.90;91.40;;;;;;5006388;28;20042;-71
2023/08/02 05:40:20;;;;;;;0.00;0.00;;;15.90;91.30;;;;;;5005730;28;20069;-71
2023/08/02 05:42:46;;;;;;;0.00;0.00;;;15.90;91.40;;;;;;5006513;28;20131;-71
2023/08/02 05:45:11;;;;;;;0.05;0.05;;;15.90;91.40;;;;;;5006751;28;20042;-71
2023/08/02 05:47:37;;;;;;;0.10;0.10;;;16.00;91.30;;;;;;5006538;28;20132;-71
2023/08/02 05:50:03;;;;;;;0.70;0.70;;;16.00;91.40;;;;;;5007310;28;20487;-71
2023/08/02 05:52:29;;;;;;;0.00;0.00;;;16.00;91.50;;;;;;5006444;28;20054;-71
2023/08/02 05:54:55;;;;;;;0.00;0.00;;;16.00;91.50;;;;;;5010113;28;20517;-71
2023/08/02 05:57:20;;;;;;;0.00;0.00;;;16.00;91.40;;;;;;5009623;28;20054;-71
2023/08/02 05:59:49;;;;;;;0.00;0.00;;;16.00;91.40;;;;;;4992350;28;20560;-71
2023/08/02 06:02:14;;;;;;;0.13;0.13;;;16.10;91.50;;;;;;5009335;28;20096;-70
2023/08/02 06:04:44;;;;;;;0.22;0.22;;;16.10;91.40;;;;;;5008980;28;20128;-72
2023/08/02 06:07:10;;;;;;;0.00;0.00;;;16.20;91.40;;;;;;5008089;28;20049;-71
2023/08/02 06:09:36;;;;;;;0.00;0.00;;;16.20;91.40;;;;;;5009915;28;20457;-71
2023/08/02 06:12:02;;;;;;;0.00;0.00;;;16.20;91.40;;;;;;5009026;28;20053;-71
2023/08/02 06:14:28;;;;;;;0.00;0.00;;;16.20;91.40;;;;;;5009455;28;20054;-70
2023/08/02 06:16:53;;;;;;;0.00;0.00;;;16.20;91.40;;;;;;5008618;28;20527;-70
2023/08/02 06:19:19;;;;;;;0.00;0.00;;;16.20;91.30;;;;;;5008954;28;20046;-70
2023/08/02 06:21:47;;;;;;;0.00;0.00;;;16.20;91.30;;;;;;5007132;28;20054;-68
2023/08/02 06:24:13;;;;;;;0.00;0.00;;;16.20;91.20;;;;;;5010382;28;20056;-69
2023/08/02 06:26:39;;;;;;;0.00;0.00;;;16.30;91.30;;;;;;5010590;28;20061;-69
2023/08/02 06:29:06;;;;;;;0.00;0.00;;;16.30;91.30;;;;;;5009368;28;20077;-69
2023/08/02 06:31:32;;;;;;;0.00;0.00;;;16.40;91.20;;;;;;5008525;28;20050;-69
2023/08/02 06:33:57;;;;;;;0.00;0.00;;;16.40;91.20;;;;;;5008488;28;20111;-69
2023/08/02 06:36:23;;;;;;;0.00;0.00;;;16.40;91.20;;;;;;5009021;28;20073;-69
2023/08/02 06:38:48;;;;;;;0.00;0.00;;;16.40;91.10;;;;;;5008953;28;20085;-69
2023/08/02 06:41:14;;;;;;;0.00;0.00;;;16.50;91.00;;;;;;5008069;28;20053;-69
2023/08/02 06:43:40;;;;;;;0.00;0.00;;;16.40;91.10;;;;;;5009592;28;20042;-69
2023/08/02 06:46:06;;;;;;;0.00;0.00;;;16.40;91.00;;;;;;5008734;28;20136;-69
2023/08/02 06:48:31;;;;;;;0.00;0.00;;;16.50;91.00;;;;;;5010133;28;20046;-69
2023/08/02 06:50:57;;;;;;;0.00;0.00;;;16.50;91.00;;;;;;5008371;28;20157;-69
2023/08/02 06:53:23;;;;;;;0.00;0.00;;;16.50;91.10;;;;;;5009409;28;20147;-69
2023/08/02 06:55:49;;;;;;;0.22;0.22;;;16.50;91.00;;;;;;5009032;28;20048;-69
2023/08/02 06:58:15;;;;;;;0.10;0.10;;;16.50;91.00;;;;;;5004539;28;20132;-69
2023/08/02 07:00:41;;;;;;;0.00;0.00;;;16.50;90.90;;;;;;5008494;28;20104;-68
2023/08/02 07:03:07;;;;;;;0.00;0.00;;;16.60;90.80;;;;;;5006374;28;20050;-68
2023/08/02 07:05:34;;;;;;;0.00;0.00;;;16.60;90.80;;;;;;5006142;28;20042;-68
2023/08/02 07:08:02;;;;;;;0.00;0.00;;;16.60;90.70;;;;;;5007472;28;20049;-68
2023/08/02 07:10:28;;;;;;;0.00;0.00;;;16.50;90.70;;;;;;5007436;28;20081;-68
2023/08/02 07:12:56;;;;;;;0.00;0.00;;;16.50;90.60;;;;;;5007916;28;20046;-68
2023/08/02 07:15:21;;;;;;;0.00;0.00;;;16.50;90.60;;;;;;5007012;28;20490;-68
2023/08/02 07:17:48;;;;;;;0.03;0.03;;;16.40;90.60;;;;;;5007067;28;20069;-68
2023/08/02 07:20:14;;;;;;;0.00;0.00;;;16.40;90.50;;;;;;5007675;28;20041;-68
2023/08/02 07:22:42;;;;;;;0.00;0.00;;;16.40;90.70;;;;;;5006758;28;20045;-68
2023/08/02 07:25:08;;;;;;;0.10;0.10;;;16.40;90.70;;;;;;5006248;28;20057;-67
2023/08/02 07:27:34;;;;;;;0.00;0.00;;;16.40;90.90;;;;;;5006905;28;20522;-67
2023/08/02 07:30:01;;;;;;;0.00;0.00;;;16.30;90.90;;;;;;5005799;28;20074;-68
2023/08/02 07:32:26;;;;;;;0.00;0.00;;;16.30;91.00;;;;;;5004481;28;20137;-67
2023/08/02 07:34:52;;;;;;;0.00;0.00;;;16.30;91.00;;;;;;5005950;28;20589;-67
2023/08/02 07:37:18;;;;;;;0.00;0.00;;;16.30;91.10;;;;;;5005839;28;20104;-67
2023/08/02 07:39:44;;;;;;;0.00;0.00;;;16.30;91.10;;;;;;5006276;28;20433;-66
2023/08/02 07:42:10;;;;;;;0.00;0.00;;;16.40;91.10;;;;;;5005711;28;20147;-67
2023/08/02 07:44:37;;;;;;;0.00;0.00;;;16.30;91.10;;;;;;5007894;28;20066;-67
2023/08/02 07:47:03;;;;;;;0.00;0.00;;;16.30;91.20;;;;;;5008720;28;20657;-67
2023/08/02 07:49:29;;;;;;;0.00;0.00;;;16.30;91.10;;;;;;5009041;28;20048;-67
2023/08/02 07:51:55;;;;;;;0.00;0.00;;;16.30;91.10;;;;;;5008681;28;20650;-67
2023/08/02 07:54:20;;;;;;;0.20;0.20;;;16.30;91.20;;;;;;5009034;28;20045;-67
2023/08/02 07:56:46;;;;;;;0.00;0.00;;;16.30;91.10;;;;;;5008278;28;20071;-66
2023/08/02 07:59:12;;;;;;;0.10;0.10;;;16.20;91.20;;;;;;5006397;28;20034;-66
2023/08/02 08:01:37;;;;;;;0.00;0.00;;;16.20;91.30;;;;;;5004279;28;20033;-67
2023/08/02 08:04:03;;;;;;;0.55;0.52;;;16.20;91.40;;;;;;5008797;28;20077;-66
2023/08/02 08:06:28;;;;;;;0.00;0.00;;;16.10;91.30;;;;;;5008271;28;20752;-68
2023/08/02 08:08:54;;;;;;;0.00;0.00;;;16.10;91.50;;;;;;5006494;28;20501;-69
2023/08/02 08:11:19;;;;;;;0.00;0.00;;;16.10;91.70;;;;;;5008416;28;20042;-65
2023/08/02 08:13:45;;;;;;;0.00;0.00;;;16.10;91.60;;;;;;5007264;28;20046;-67
2023/08/02 08:16:11;;;;;;;0.00;0.00;;;16.10;91.50;;;;;;5008232;28;20066;-68
2023/08/02 08:18:36;;;;;;;0.00;0.00;;;16.10;91.40;;;;;;5006480;28;20057;-68
2023/08/02 08:21:03;;;;;;;0.00;0.00;;;16.10;91.50;;;;;;5007828;28;20042;-67
2023/08/02 08:23:30;;;;;;;0.00;0.00;;;16.00;91.60;;;;;;5006297;28;20056;-68
2023/08/02 08:25:56;;;;;;;0.00;0.00;;;16.00;91.50;;;;;;5007883;28;20073;-68
2023/08/02 08:28:22;;;;;;;0.00;0.00;;;16.10;91.60;;;;;;5006084;28;20089;-68
2023/08/02 08:30:47;;;;;;;0.00;0.00;;;16.00;91.60;;;;;;5007961;28;20123;-68
2023/08/02 08:33:13;;;;;;;0.00;0.00;;;16.10;91.70;;;;;;5006547;28;20053;-67
2023/08/02 08:35:38;;;;;;;0.00;0.00;;;16.10;91.80;;;;;;5007811;28;20046;-68
2023/08/02 08:38:04;;;;;;;0.00;0.00;;;16.10;91.90;;;;;;5008093;28;20046;-68
2023/08/02 08:40:32;;;;;;;0.00;0.00;;;16.00;91.90;;;;;;5007718;28;20037;-68
2023/08/02 08:43:01;;;;;;;0.00;0.00;;;16.00;91.90;;;;;;5006863;28;20088;-67
2023/08/02 08:45:27;;;;;;;0.00;0.00;;;16.10;92.00;;;;;;5005723;28;20060;-67
2023/08/02 08:47:53;;;;;;;0.00;0.00;;;16.00;91.90;;;;;;5007150;28;20069;-67
2023/08/02 08:50:21;;;;;;;0.00;0.00;;;16.00;91.90;;;;;;5006119;28;20491;-68
2023/08/02 08:52:50;;;;;;;0.00;0.00;;;16.00;92.10;;;;;;5002927;28;20053;-68
2023/08/02 08:55:17;;;;;;;0.00;0.00;;;16.00;92.00;;;;;;5005697;28;20101;-67
2023/08/02 08:57:45;;;;;;;0.00;0.00;;;16.00;92.00;;;;;;5006610;28;20042;-67
2023/08/02 09:00:12;;;;;;;0.00;0.00;;;16.00;92.00;;;;;;5006288;28;20092;-67
2023/08/02 09:02:41;;;;;;;0.00;0.00;;;16.00;91.90;;;;;;5004648;28;20667;-67
2023/08/02 09:05:07;;;;;;;0.00;0.00;;;16.10;92.10;;;;;;5005789;28;20042;-67
2023/08/02 09:07:33;;;;;;;0.00;0.00;;;16.10;92.30;;;;;;5004835;28;20145;-67
2023/08/02 09:09:59;;;;;;;0.00;0.00;;;16.10;92.30;;;;;;5006708;28;20120;-67
2023/08/02 09:12:25;;;;;;;0.00;0.00;;;16.20;92.20;;;;;;4987519;28;20112;-67
2023/08/02 09:15:02;;;;;;;0.00;0.00;;;16.20;92.20;;;;;;5004735;28;20085;-66
2023/08/02 09:17:50;;;;;;;0.00;0.00;;;16.20;92.20;;;;;;5000942;28;20062;-66
2023/08/02 09:20:18;;;;;;;0.00;0.00;;;16.20;92.20;;;;;;5005488;28;20077;-69
2023/08/02 09:22:44;;;;;;;0.00;0.00;;;16.30;92.30;;;;;;5004743;28;20054;-68
2023/08/02 09:25:28;;;;;;;0.00;0.00;;;16.40;92.60;;;;;;5004661;28;20499;-67
2023/08/02 09:27:56;;;;;;;0.00;0.00;;;16.40;92.60;;;;;;5005981;28;20052;-67
2023/08/02 09:30:28;;;;;;;0.00;0.00;;;16.50;92.50;;;;;;5005615;28;20030;-67
2023/08/02 09:33:00;;;;;;;;;;;16.50;92.50;;;;;;5006481;28;20092;-67
2023/08/02 09:35:25;;;;;;;;;;;16.50;92.50;;;;;;5005849;28;20473;-66
2023/08/02 09:37:51;;;;;;;0.00;0.00;;;16.50;92.60;;;;;;5006340;28;19936;-66
2023/08/02 09:40:17;;;;;;;0.00;0.00;;;16.50;92.60;;;;;;5004918;28;20104;-67
2023/08/02 09:42:42;;;;;;;0.00;0.00;;;16.50;92.60;;;;;;5005846;28;20046;-68
2023/08/02 09:45:08;;;;;;;0.00;0.00;;;16.50;92.60;;;;;;5005704;28;20048;-68
2023/08/02 09:47:34;;;;;;;0.00;0.00;;;16.50;92.70;;;;;;5001138;28;20065;-67
2023/08/02 09:50:11;;;;;;;0.00;0.00;;;16.50;92.70;;;;;;5003226;28;20042;-66
2023/08/02 09:52:40;;;;;;;0.00;0.00;;;16.60;92.70;;;;;;5002636;28;20061;-67
2023/08/02 09:55:07;;;;;;;0.00;0.00;;;16.60;92.60;;;;;;5002281;28;20088;-67
2023/08/02 09:57:33;;;;;;;0.00;0.00;;;16.70;92.80;;;;;;5003816;28;20065;-67
2023/08/02 10:00:07;;;;;;;0.00;0.00;;;16.80;92.80;;;;;;5002958;28;20133;-67
2023/08/02 10:02:35;;;;;;;0.00;0.00;;;16.80;92.70;;;;;;5004341;28;20108;-67
2023/08/02 10:05:01;;;;;;;0.10;0.10;;;16.80;92.80;;;;;;5002722;28;20538;-67
2023/08/02 10:07:48;;;;;;;0.00;0.00;;;16.80;92.70;;;;;;5003589;28;20053;-67
2023/08/02 10:10:22;;;;;;;0.00;0.00;;;16.70;92.60;;;;;;5004250;28;20042;-67
2023/08/02 10:13:08;;;;;;;0.00;0.00;;;16.80;92.80;;;;;;5003715;28;20097;-67
2023/08/02 10:15:35;;;;;;;0.00;0.00;;;16.80;92.80;;;;;;5004244;28;20046;-64
2023/08/02 10:18:01;;;;;;;0.88;0.22;;;16.80;92.80;;;;;;5004592;28;20058;-67
2023/08/02 10:20:29;;;;;;;0.00;0.00;;;16.90;92.90;;;;;;5005813;28;20072;-67
2023/08/02 10:22:57;;;;;;;0.00;0.00;;;16.90;92.80;;;;;;5004971;28;20057;-67
2023/08/02 10:25:23;;;;;;;0.00;0.00;;;16.80;92.70;;;;;;5003870;28;20057;-67
2023/08/02 10:27:49;;;;;;;0.00;0.00;;;16.80;92.70;;;;;;5004172;28;20052;-67
2023/08/02 10:30:16;;;;;;;0.00;0.00;;;16.80;92.70;;;;;;5003219;28;20473;-67
2023/08/02 10:32:41;;;;;;;0.00;0.00;;;16.70;92.70;;;;;;5003914;28;20525;-67
2023/08/02 10:35:07;;;;;;;0.00;0.00;;;16.70;92.70;;;;;;5005300;28;20041;-67
2023/08/02 10:37:54;;;;;;;0.00;0.00;;;16.70;92.70;;;;;;5004182;28;20144;-67
2023/08/02 10:40:25;;;;;;;0.00;0.00;;;16.80;93.00;;;;;;5000368;28;20070;-67
2023/08/02 10:43:04;;;;;;;0.00;0.00;;;16.70;93.00;;;;;;5008447;28;20112;-67
2023/08/02 10:45:30;;;;;;;0.00;0.00;;;16.80;92.90;;;;;;5007771;28;20108;-67
2023/08/02 10:48:23;;;;;;;0.03;0.03;;;16.80;93.00;;;;;;5006125;28;20057;-67
2023/08/02 10:50:49;;;;;;;0.00;0.00;;;16.80;93.00;;;;;;5008995;28;20143;-67
2023/08/02 10:53:15;;;;;;;0.00;0.00;;;16.80;93.00;;;;;;5009411;28;20049;-66
2023/08/02 10:56:06;;;;;;;0.00;0.00;;;17.00;93.20;;;;;;5006443;28;20565;-66
2023/08/02 10:58:51;;;;;;;0.00;0.00;;;17.00;93.30;;;;;;5008090;28;20057;-67
2023/08/02 11:01:18;;;;;;;0.00;0.00;;;17.10;93.50;;;;;;5007136;28;20054;-68
2023/08/02 11:03:44;;;;;;;0.00;0.00;;;17.20;93.40;;;;;;5005892;28;20062;-69
2023/08/02 11:06:24;;;;;;;0.00;0.00;;;17.30;93.40;;;;;;5007239;28;20046;-67
2023/08/02 11:08:49;;;;;;;0.00;0.00;;;17.30;93.20;;;;;;5006700;28;20080;-68
2023/08/02 11:11:15;;;;;;;0.00;0.00;;;17.40;93.50;;;;;;5007132;28;20077;-67
2023/08/02 11:13:41;;;;;;;0.00;0.00;;;17.50;93.50;;;;;;5006214;28;20410;-67
2023/08/02 11:16:07;;;;;;;0.00;0.00;;;17.60;93.50;;;;;;5006471;28;20038;-66
2023/08/02 11:18:35;;;;;;;0.10;0.10;;;17.70;93.60;;;;;;5004718;28;20112;-67
2023/08/02 11:21:12;;;;;;;0.00;0.00;;;17.90;93.50;;;;;;5005436;28;20053;-66
2023/08/02 11:23:39;;;;;;;0.00;0.00;;;18.00;93.40;;;;;;5007321;28;20164;-67
2023/08/02 11:26:12;;;;;;;0.00;0.00;;;18.10;93.30;;;;;;5007154;28;20059;-67
2023/08/02 11:28:44;;;;;;;0.00;0.00;;;18.20;93.40;;;;;;5006277;28;20057;-67
2023/08/02 11:31:13;;;;;;;0.00;0.00;;;18.30;93.30;;;;;;5006579;28;20108;-67
2023/08/02 11:33:38;;;;;;;0.03;0.03;;;18.30;93.10;;;;;;5002863;28;20057;-67
2023/08/02 11:36:05;;;;;;;0.00;0.00;;;18.50;93.10;;;;;;5009240;28;20403;-67
2023/08/02 11:38:31;;;;;;;0.00;0.00;;;18.50;92.90;;;;;;5007219;28;20085;-66
2023/08/02 11:40:57;;;;;;;0.00;0.00;;;18.50;92.70;;;;;;5007974;28;20076;-67
2023/08/02 11:43:38;;;;;;;0.00;0.00;;;18.50;92.60;;;;;;5007934;28;20555;-67
2023/08/02 11:46:21;;;;;;;0.10;0.10;;;18.50;92.50;;;;;;5008306;28;20060;-68
2023/08/02 11:48:48;;;;;;;0.00;0.00;;;18.60;92.40;;;;;;5006876;28;20056;-68
2023/08/02 11:51:15;;;;;;;0.00;0.00;;;18.60;92.40;;;;;;5006699;28;20120;-67
2023/08/02 11:53:55;;;;;;;0.00;0.00;;;18.60;92.20;;;;;;5007558;28;20056;-67
2023/08/02 11:56:22;;;;;;;0.00;0.00;;;18.60;92.30;;;;;;5007243;28;20117;-68
2023/08/02 11:58:49;;;;;;;0.70;0.57;;;18.60;92.30;;;;;;5006627;28;20057;-67
2023/08/02 12:01:15;;;;;;;0.00;0.00;;;18.60;92.20;;;;;;5006896;28;20530;-67
2023/08/02 12:04:03;;;;;;;0.00;0.00;;;18.60;92.20;;;;;;5006123;28;20072;-67
2023/08/02 12:06:50;;;;;;;0.00;0.00;;;18.60;92.20;;;;;;5006732;28;20053;-67
2023/08/02 12:09:17;;;;;;;25.10;1.17;;;18.70;92.30;;;;;;5006870;28;21546;-67
2023/08/02 12:11:44;;;;;;;0.00;0.00;;;18.90;92.50;;;;;;5005209;28;20489;-68
2023/08/02 12:14:09;;;;;;;0.00;0.00;;;19.00;92.70;;;;;;5007244;28;20503;-67
2023/08/02 12:16:40;;;;;;;0.00;0.00;;;19.10;92.80;;;;;;5005896;28;20054;-67
2023/08/02 12:19:05;;;;;;;0.00;0.00;;;19.50;92.80;;;;;;5007372;28;20053;-67
2023/08/02 12:21:31;;;;;;;0.00;0.00;;;19.60;92.90;;;;;;5006438;28;20030;-67
2023/08/02 12:23:57;;;;;;;0.10;0.10;;;19.90;92.70;;;;;;5005564;28;20065;-67
2023/08/02 12:26:33;;;;;;;0.03;0.03;;;20.00;92.50;;;;;;5002673;28;20042;-67
2023/08/02 12:29:00;;;;;;;0.00;0.00;;;20.10;91.50;;;;;;5007780;28;20050;-67
2023/08/02 12:31:27;;;;;;;0.00;0.00;;;20.00;91.30;;;;;;5007781;28;20677;-67
2023/08/02 12:33:53;;;;;;;0.00;0.00;;;20.10;91.30;;;;;;5006570;28;20037;-67
2023/08/02 12:36:29;;;;;;;0.10;0.10;;;20.20;91.00;;;;;;5007205;28;20049;-67
2023/08/02 12:38:56;;;;;;;0.00;0.00;;;20.30;90.60;;;;;;5006752;28;20045;-67
2023/08/02 12:41:22;;;;;;;0.00;0.00;;;20.60;90.60;;;;;;5006222;28;20717;-67
2023/08/02 12:43:47;;;;;;;0.00;0.00;;;20.70;90.00;;;;;;5007262;28;20132;-67
2023/08/02 12:46:16;;;;;;;0.00;0.00;;;20.90;89.00;;;;;;5005723;28;20033;-67
2023/08/02 12:48:41;;;;;;;0.00;0.00;;;21.00;88.20;;;;;;5007499;28;20221;-67